Blackwell, Oklahoma
Current Conditions -  °F | °C
As of 11:35 PM on Saturday 20 Dec 2014 (Local Time) from KBKN Reporting Station
Overcast Overcast  
Wind Chill: 34°   Ceiling: 1400
Heat Index: 41°   Visibility: 10mi
Dew Point: 37°   Wind: 13mph
Humidity: 87%   Direction: 180°S
Pressure: 30.11"   Gusts: NA
Location:  36.8°N, 97.28°W
Report Text: KBKN 210535Z AUTO 18011KT 10SM OVC014 05/03 A3011 RMK AO2
Loading
Personal Weather Stations






























Interactive Weather Map New forecast layout! Learn more

10-Day Weather Forecast

Advertisements
Track Severe Weather on mobile